Flight Track Log - Related Links

Times and Time Zones

All times are in EDT time to prevent confusion due to time zone crossing. See the DAL1712 flight status page for this flight to view local times or setup timezone preferences in your user account.

Time Position Orientation Groundspeed Altitude Reporting Facility
EDT Latitude Longitude Course Direction KTS MPH feet Rate Location/Type
Mon 02:46:33 PM 44.9000 -93.2500 180° South 179 206 1,800  Level Minneapolis TRACON
Mon 02:47:33 PM 44.9000 -93.3167 270° West 227 261 3,000 1,843 Climbing Minneapolis TRACON
Mon 02:48:40 PM 44.8508 -93.4111 234° Southwest 266 306 5,700 1,907 Climbing Minneapolis Center
Mon 02:49:42 PM 44.7772 -93.4403 196° South 294 338 7,100 1,887 Climbing Minneapolis Center
Mon 02:50:00 PM 44.3716 -92.9995 152° Southeast  Level FlightAware Approximate
Mon 02:50:44 PM 44.6936 -93.4378 179° South 303 349 9,600  Level Minneapolis Center
Mon 02:51:00 PM 44.2550 -92.9167 180° South  Level FlightAware Approximate
Mon 02:51:46 PM 44.5889 -93.3936 163° South 362 417 11,400  Level Minneapolis Center
Mon 02:52:48 PM 44.5061 -93.2903 138° Southeast 403 464 13,100 1,694 Climbing Minneapolis Center
Mon 02:53:50 PM 44.4172 -93.1825 139° Southeast 424 488 14,900 1,694 Climbing Minneapolis Center
Mon 02:54:52 PM 44.3233 -93.0706 140° Southeast 441 507 16,600 1,872 Climbing Minneapolis Center
Mon 02:55:55 PM 44.2081 -92.9328 139° Southeast 453 521 18,800 1,680 Climbing Minneapolis Center
Mon 02:56:57 PM 44.1069 -92.8192 141° Southeast 463 533 20,100 1,306 Climbing Minneapolis Center
Mon 02:57:59 PM 43.9883 -92.7386 154° Southeast 471 542 21,500 1,161 Climbing Minneapolis Center
Mon 02:59:01 PM 43.8669 -92.6561 154° Southeast 481 554 22,500 1,296 Climbing Minneapolis Center
Mon 03:00:04 PM 43.7158 -92.5897 162° South 486 559 24,200 1,210 Climbing Minneapolis Center
Mon 03:01:05 PM 43.5833 -92.5664 173° South 488 562 25,000 390 Climbing Chicago Center
Mon 03:02:07 PM 43.4519 -92.5458 174° South 484 557 25,000  Level Chicago Center
Mon 03:03:09 PM 43.3208 -92.5239 173° South 482 555 25,000  Level Chicago Center
Mon 03:04:11 PM 43.1883 -92.5014 173° South 482 555 25,000  Level Chicago Center
Mon 03:05:13 PM 43.0314 -92.4756 173° South 481 554 25,000  Level Chicago Center
Mon 03:06:15 PM 42.9006 -92.4544 173° South 482 555 25,000  Level Chicago Center
Mon 03:07:17 PM 42.7692 -92.4333 173° South 482 555 25,000  Level Chicago Center
Mon 03:08:19 PM 42.6392 -92.4131 173° South 481 554 25,000  Level Chicago Center
Mon 03:09:23 PM 42.4889 -92.3631 166° South 480 552 25,000  Level Minneapolis Center
Mon 03:10:23 PM 42.3672 -92.2953 158° South 478 550 25,000  Level Chicago Center
Mon 03:11:25 PM 42.2469 -92.2292 158° South 477 549 25,000  Level Chicago Center
Mon 03:12:27 PM 42.1269 -92.1633 158° South 472 543 25,000  Level Chicago Center
Mon 03:13:29 PM 42.0039 -92.0969 158° South 475 547 25,000  Level Chicago Center
Mon 03:14:31 PM 41.8569 -92.0178 158° South 479 551 25,000  Level Chicago Center
Mon 03:15:33 PM 41.7328 -91.9508 158° South 484 557 25,000  Level Chicago Center
Mon 03:16:35 PM 41.6094 -91.8842 158° South 484 557 25,000  Level Chicago Center
Mon 03:17:37 PM 41.4844 -91.8189 159° South 484 557 25,000  Level Chicago Center
Mon 03:18:39 PM 41.3356 -91.7392 158° South 484 557 25,000  Level Chicago Center
Mon 03:19:41 PM 41.2256 -91.6822 159° South 481 554 25,000  Level Chicago Center
Mon 03:20:43 PM 41.1047 -91.6183 158° South 479 551 25,000  Level Chicago Center
Mon 03:21:46 PM 40.9553 -91.5414 159° South 477 549 25,000  Level Chicago Center
Mon 03:22:48 PM 40.8303 -91.4764 159° South 478 550 25,000  Level Chicago Center
Mon 03:23:50 PM 40.7053 -91.4119 159° South 482 555 25,000  Level Chicago Center
Mon 03:24:52 PM 40.5819 -91.3467 158° South 481 554 25,000  Level Chicago Center
Mon 03:25:49 PM 40.4578 -91.2833 159° South 483 556 25,000  Level Kansas City Center
Mon 03:26:50 PM 40.3353 -91.2200 158° South 482 555 25,000  Level Kansas City Center
Mon 03:27:54 PM 40.2103 -91.1561 159° South 481 554 25,000  Level Kansas City Center
Mon 03:28:55 PM 40.0822 -91.1181 167° South 478 550 25,000  Level Kansas City Center
Mon 03:29:57 PM 39.9511 -91.0931 172° South 477 549 25,000  Level Kansas City Center
Mon 03:30:59 PM 39.7947 -91.0617 171° South 477 549 25,000 48 Level Kansas City Center
Mon 03:32:02 PM 39.6600 -91.0331 171° South 470 541 25,100 720 Climbing Kansas City Center
Mon 03:33:04 PM 39.5275 -91.0117 173° South 473 544 26,500 1,122 Climbing Kansas City Center
Mon 03:34:05 PM 39.3967 -90.9953 174° South 474 545 27,400 885 Climbing Kansas City Center
Mon 03:35:06 PM 39.2644 -90.9769 174° South 474 545 28,300 864 Climbing Kansas City Center
Mon 03:36:10 PM 39.1319 -90.9578 174° South 480 552 29,200 968 Climbing Kansas City Center
Mon 03:37:10 PM 38.9997 -90.9392 174° South 480 552 30,300 885 Climbing Kansas City Center
Mon 03:38:12 PM 38.8394 -90.9172 174° South 482 555 31,000 333 Climbing Kansas City Center
Mon 03:39:16 PM 38.7036 -90.8989 174° South 489 563 31,000  Level Kansas City Center
Mon 03:40:17 PM 38.5672 -90.8842 175° South 496 571 31,000  Level Kansas City Center
Mon 03:41:18 PM 38.4325 -90.8711 176° South 496 571 31,000  Level Kansas City Center
Mon 03:42:22 PM 38.3058 -90.7583 145° Southeast 492 566 31,000  Level Kansas City Center
Mon 03:43:23 PM 38.2331 -90.6142 123° Southeast 488 562 31,000  Level Kansas City Center
Mon 03:44:24 PM 38.1603 -90.4706 123° Southeast 488 562 31,000  Level Kansas City Center
Mon 03:45:27 PM 38.0878 -90.3244 122° Southeast 490 564 31,000  Level Kansas City Center
Mon 03:46:28 PM 38.0136 -90.1792 123° Southeast 492 566 31,000  Level Kansas City Center
Mon 03:47:32 PM 37.9244 -90.0033 123° Southeast 486 559 31,000  Level Kansas City Center
Mon 03:48:34 PM 37.8508 -89.8594 123° Southeast 486 559 31,000  Level Kansas City Center
Mon 03:49:37 PM 37.7814 -89.7208 122° Southeast 485 558 31,000  Level Kansas City Center
Mon 03:50:38 PM 37.7069 -89.5764 123° Southeast 486 559 31,000  Level Kansas City Center
Mon 03:51:40 PM 37.6297 -89.4336 124° Southeast 492 566 31,000  Level Kansas City Center
Mon 03:52:41 PM 37.5428 -89.2636 123° Southeast 487 560 31,000  Level Kansas City Center
Mon 03:53:45 PM 37.4650 -89.1211 124° Southeast 485 558 31,000  Level Kansas City Center
Mon 03:54:45 PM 37.3886 -88.9728 123° Southeast 492 566 31,000  Level Kansas City Center
Mon 03:55:42 PM 37.3106 -88.8253 124° Southeast 498 573 31,000  Level Memphis Center
Mon 03:56:45 PM 37.2317 -88.6778 124° Southeast 500 575 31,000  Level Memphis Center
Mon 03:57:46 PM 37.1539 -88.5311 124° Southeast 502 578 31,000  Level Memphis Center
Mon 03:58:48 PM 37.0775 -88.3883 124° Southeast 498 573 31,000  Level Memphis Center
Mon 03:59:51 PM 36.9997 -88.2442 124° Southeast 498 573 31,000  Level Memphis Center
Mon 04:00:53 PM 36.9189 -88.0933 124° Southeast 496 571 31,000  Level Memphis Center
Mon 04:01:55 PM 36.8414 -87.9506 124° Southeast 495 570 31,000  Level Memphis Center
Mon 04:02:57 PM 36.7647 -87.8094 124° Southeast 493 567 31,000  Level Memphis Center
Mon 04:03:59 PM 36.6744 -87.6453 124° Southeast 490 564 31,000  Level Memphis Center
Mon 04:05:01 PM 36.5975 -87.5039 124° Southeast 490 564 31,000  Level Memphis Center
Mon 04:06:03 PM 36.5200 -87.3647 125° Southeast 488 562 31,000  Level Memphis Center
Mon 04:07:05 PM 36.4433 -87.2256 124° Southeast 488 562 31,000  Level Memphis Center
Mon 04:08:07 PM 36.3669 -87.0892 125° Southeast 486 559 31,000  Level Memphis Center
Mon 04:09:09 PM 36.2892 -86.9503 125° Southeast 485 558 31,000  Level Memphis Center
Mon 04:10:11 PM 36.2008 -86.7956 125° Southeast 488 562 31,000  Level Memphis Center
Mon 04:11:13 PM 36.1136 -86.6719 131° Southeast 487 560 31,000  Level Memphis Center
Mon 04:12:15 PM 35.9875 -86.6053 157° South 491 565 31,000  Level Memphis Center
Mon 04:13:17 PM 35.8611 -86.5419 158° South 489 563 31,000  Level Memphis Center
Mon 04:14:19 PM 35.7353 -86.4811 159° South 487 560 31,000  Level Memphis Center
Mon 04:15:21 PM 35.6100 -86.4181 158° South 485 558 31,000  Level Memphis Center
Mon 04:16:23 PM 35.4639 -86.3461 158° South 482 555 31,000  Level Memphis Center
Mon 04:17:25 PM 35.3389 -86.2856 158° South 481 554 31,000  Level Memphis Center
Mon 04:18:27 PM 35.2131 -86.2261 159° South 481 554 31,000  Level Memphis Center
Mon 04:19:30 PM 35.0878 -86.1650 158° South 481 554 31,000  Level Memphis Center
Mon 04:20:32 PM 34.9633 -86.1042 158° South 481 554 31,000  Level Memphis Center
Mon 04:21:34 PM 34.8392 -86.0447 159° South 481 554 31,000  Level Memphis Center
Mon 04:22:36 PM 34.7122 -85.9844 159° South 479 551 31,000  Level Memphis Center
Mon 04:23:29 PM 34.5856 -85.9186 157° South 483 556 31,000  Level Atlanta Center
Mon 04:24:29 PM 34.4569 -85.8603 159° South 483 556 31,000  Level Atlanta Center
Mon 04:25:29 PM 34.3492 -85.8125 160° South 483 556 31,000  Level Atlanta Center
Mon 04:26:29 PM 34.2228 -85.7547 159° South 477 549 31,000  Level Atlanta Center
Mon 04:27:29 PM 34.0983 -85.6944 158° South 483 556 31,000  Level Atlanta Center
Mon 04:28:29 PM 33.9758 -85.6369 159° South 483 556 31,000  Level Atlanta Center
Mon 04:29:29 PM 33.8494 -85.5797 159° South 483 556 31,000  Level Atlanta Center
Mon 04:30:29 PM 33.7247 -85.5200 158° South 483 556 31,000  Level Atlanta Center
Mon 04:31:29 PM 33.6003 -85.4631 159° South 483 556 31,000  Level Atlanta Center
Mon 04:32:29 PM 33.4758 -85.4036 158° South 483 556 31,000  Level Atlanta Center
Mon 04:33:29 PM 33.3469 -85.3469 160° South 489 563 31,000  Level Atlanta Center
Mon 04:34:29 PM 33.2244 -85.2881 158° South 484 557 31,000  Level Atlanta Center
Mon 04:35:29 PM 33.0997 -85.2317 159° South 479 551 31,000  Level Atlanta Center
Mon 04:36:29 PM 32.9625 -85.1728 160° South 479 551 31,000  Level Atlanta Center
Mon 04:37:29 PM 32.8439 -85.1367 166° South 479 551 31,000  Level Atlanta Center
Mon 04:38:29 PM 32.7003 -85.0831 163° South 479 551 31,000  Level Atlanta Center
Mon 04:39:29 PM 32.5711 -85.0394 164° South 479 551 31,000  Level Atlanta Center
Mon 04:40:29 PM 32.4422 -84.9961 164° South 478 550 31,000  Level Atlanta Center
Mon 04:41:29 PM 32.3192 -84.9556 164° South 478 550 31,000  Level Atlanta Center
Mon 04:42:29 PM 32.1986 -84.9200 166° South 478 550 31,000  Level Atlanta Center
Mon 04:43:29 PM 32.0694 -84.8747 163° South 478 550 31,000  Level Atlanta Center
Mon 04:45:04 PM 31.8536 -84.8003 164° South 478 550 31,000  Level Jacksonville Center
Mon 04:46:04 PM 31.7247 -84.7586 165° South 472 543 31,000  Level Jacksonville Center
Mon 04:47:04 PM 31.6000 -84.7169 164° South 472 543 31,000  Level Jacksonville Center
Mon 04:48:04 PM 31.4756 -84.6756 164° South 466 536 31,000  Level Jacksonville Center
Mon 04:49:04 PM 31.3633 -84.6369 164° South 472 543 31,000  Level Jacksonville Center
Mon 04:50:04 PM 31.2386 -84.5958 164° South 472 543 31,000  Level Jacksonville Center
Mon 04:51:04 PM 31.1139 -84.5547 164° South 472 543 31,000  Level Jacksonville Center
Mon 04:52:04 PM 30.9911 -84.5139 164° South 472 543 31,000  Level Jacksonville Center
Mon 04:53:04 PM 30.8664 -84.4731 164° South 472 543 31,000  Level Jacksonville Center
Mon 04:54:04 PM 30.7394 -84.4297 164° South 472 543 31,000  Level Jacksonville Center
Mon 04:55:04 PM 30.6169 -84.3892 164° South 472 543 31,000  Level Jacksonville Center
Mon 04:56:04 PM 30.4986 -84.3342 158° South 472 543 31,000  Level Jacksonville Center
Mon 04:57:04 PM 30.3844 -84.2603 151° Southeast 467 537 31,000 -50 Level Jacksonville Center
Mon 04:58:04 PM 30.2725 -84.1867 150° Southeast 462 532 30,900  Descending Jacksonville Center
Mon 04:59:04 PM 30.1625 -84.1131 150° Southeast 462 532 31,000 50 Climbing Jacksonville Center
Mon 05:00:04 PM 30.0506 -84.0419 151° Southeast 462 532 31,000 -50 Level Jacksonville Center
Mon 05:01:04 PM 29.9364 -83.9711 152° Southeast 462 532 30,900  Descending Jacksonville Center
Mon 05:02:04 PM 29.8117 -83.8883 150° Southeast 457 526 31,000 50 Climbing Jacksonville Center
Mon 05:03:04 PM 29.6908 -83.8633 170° South 442 509 31,000  Level Jacksonville Center
Mon 05:04:04 PM 29.5756 -83.9050 197° South 423 487 31,000 -50 Level Jacksonville Center
Mon 05:05:04 PM 29.4525 -83.9086 181° South 423 487 30,900  Descending Jacksonville Center
Mon 05:06:04 PM 29.3361 -83.8478 156° South 429 494 31,000 -900 Climbing Jacksonville Center
Mon 05:07:04 PM 29.2450 -83.7494 137° Southeast 429 494 29,100 -2,050 Descending Jacksonville Center
Mon 05:08:04 PM 29.1514 -83.6558 139° Southeast 435 501 26,900 -2,000 Descending Jacksonville Center
Mon 05:09:04 PM 29.0561 -83.5694 142° Southeast 443 510 25,100 -1,950 Descending Jacksonville Center
Mon 05:10:04 PM 28.9644 -83.4883 142° Southeast 438 504 23,000 -1,050 Descending Jacksonville Center
Mon 05:11:04 PM 28.8794 -83.4094 141° Southeast 426 490 23,000 -800 Level Jacksonville Center
Mon 05:12:04 PM 28.7939 -83.3333 142° Southeast 406 467 21,400 -1,792 Descending Jacksonville Center
Mon 05:13:38 PM 28.6667 -83.2161 141° Southeast 374 430 18,400 -1,846 Descending Miami Center
Mon 05:14:40 PM 28.5878 -83.1472 143° Southeast 366 421 16,600 -1,742 Descending Miami Center
Mon 05:15:42 PM 28.5000 -83.0833 147° Southeast 348 400 14,800 -1,734 Descending Tampa TRACON
Mon 05:16:48 PM 28.4333 -83.0000 132° Southeast 335 386 12,900 -1,571 Descending Tampa TRACON
Mon 05:17:48 PM 28.3500 -82.9500 152° Southeast 314 361 11,500 -1,550 Descending Tampa TRACON
Mon 05:18:48 PM 28.3333 -82.8500 101° East 305 351 9,800 -1,700 Descending Tampa TRACON
Mon 05:19:48 PM 28.3167 -82.7667 103° East 300 345 8,100 -1,333 Descending Tampa TRACON
Mon 05:20:54 PM 28.2833 -82.6667 111° Southeast 290 334 7,000 -1,190 Descending Tampa TRACON
Mon 05:21:54 PM 28.2667 -82.5667 101° East 281 323 5,600 -1,400 Descending Tampa TRACON
Mon 05:22:54 PM 28.2000 -82.5500 168° South 251 289 4,200 -1,278 Descending Tampa TRACON
Mon 05:23:42 PM 28.1500 -82.5333 164° South 208 239 3,300 -1,105 Descending Tampa TRACON
Mon 05:24:48 PM 28.1000 -82.5333 180° South 171 197 2,100 -992 Descending Tampa TRACON
Mon 05:25:55 PM 28.0500 -82.5333 180° South 165 190 1,100 -810 Descending Tampa TRACON
Mon 05:26:54 PM 28.0000 -82.5333 180° South 141 162 400 -712 Descending Tampa TRACON

Login

Don't have an account? Register now (free) for customized features, flight alerts, and more!